Time;durP1;ratioP1;P1;durP2;ratioP2;P2;SDS_P1;SDS_P2;PMS_P1;PMS_P2;Temp;Humidity;BMP_temperature;BMP_pressure;BME280_temperature;BME280_humidity;BME280_pressure;Samples;Min_cycle;Max_cycle;Signal;HPM_P1;HPM_P2
2022/08/28 00:58:32;;;;;;;16.40;4.57;;;13.60;99.90;;;;;;5125744;27;1252238;-67
2022/08/28 01:00:59;;;;;;;11.45;4.35;;;13.20;99.90;;;;;;5144473;27;20071;-67
2022/08/28 01:03:25;;;;;;;10.80;4.05;;;13.20;99.90;;;;;;5158534;27;20380;-67
2022/08/28 01:05:51;;;;;;;8.90;4.57;;;13.20;99.90;;;;;;5144300;27;20453;-68
2022/08/28 01:08:17;;;;;;;13.38;4.18;;;13.10;99.90;;;;;;5140667;27;20051;-67
2022/08/28 01:10:46;;;;;;;10.50;4.45;;;13.00;99.90;;;;;;5131116;27;20047;-68
2022/08/28 01:13:13;;;;;;;8.63;3.80;;;12.90;99.90;;;;;;5144815;27;20073;-68
2022/08/28 01:15:41;;;;;;;12.40;3.85;;;12.80;99.90;;;;;;5143537;27;20046;-68
2022/08/28 01:18:09;;;;;;;8.27;4.45;;;12.80;99.90;;;;;;5144931;27;20098;-68
2022/08/28 01:20:40;;;;;;;9.57;3.85;;;12.90;99.90;;;;;;5140396;27;20042;-68
2022/08/28 01:23:18;;;;;;;14.98;4.00;;;13.00;99.90;;;;;;5162896;27;20035;-68
2022/08/28 01:25:43;;;;;;;8.95;4.22;;;13.10;99.90;;;;;;5160018;27;20054;-68
2022/08/28 01:28:11;;;;;;;11.73;4.22;;;13.20;99.90;;;;;;5156878;27;20071;-68
2022/08/28 01:30:39;;;;;;;10.00;4.50;;;13.20;99.90;;;;;;5163103;27;20046;-68
2022/08/28 01:33:05;;;;;;;7.68;3.30;;;13.20;99.90;;;;;;5140404;27;20051;-67
2022/08/28 01:35:34;;;;;;;13.57;4.63;;;13.20;99.90;;;;;;5156129;27;20055;-68
2022/08/28 01:38:01;;;;;;;8.73;3.72;;;13.20;99.90;;;;;;5160434;27;20047;-68
2022/08/28 01:40:30;;;;;;;14.60;4.13;;;13.20;99.90;;;;;;5142071;27;20047;-68
2022/08/28 01:43:15;;;;;;;10.40;4.07;;;13.10;99.90;;;;;;5140744;27;20100;-68
2022/08/28 01:45:48;;;;;;;11.90;4.55;;;12.90;99.90;;;;;;5142439;27;20054;-68
2022/08/28 01:48:14;;;;;;;12.57;4.63;;;12.70;99.90;;;;;;5145014;27;20050;-68
2022/08/28 01:50:41;;;;;;;8.85;4.28;;;12.60;99.90;;;;;;5158910;27;20035;-68
2022/08/28 01:53:11;;;;;;;11.57;4.20;;;12.40;99.90;;;;;;5144275;27;20078;-68
2022/08/28 01:55:37;;;;;;;10.15;3.72;;;12.40;99.90;;;;;;5144019;27;20043;-68
2022/08/28 01:58:05;;;;;;;9.52;4.47;;;12.30;99.90;;;;;;5143806;27;20101;-68
2022/08/28 02:00:31;;;;;;;8.57;4.57;;;12.30;99.90;;;;;;5143715;27;20551;-68
2022/08/28 02:02:58;;;;;;;7.88;3.75;;;12.20;99.90;;;;;;5155776;27;20062;-68
2022/08/28 02:05:27;;;;;;;8.52;4.10;;;12.30;99.90;;;;;;5144274;27;20051;-68
2022/08/28 02:07:53;;;;;;;10.25;4.30;;;12.30;99.90;;;;;;5159155;27;20047;-68
2022/08/28 02:10:23;;;;;;;10.82;4.40;;;12.40;99.90;;;;;;5129097;27;20050;-68
2022/08/28 02:12:49;;;;;;;9.15;4.40;;;12.40;99.90;;;;;;5147475;27;20031;-68
2022/08/28 02:15:15;;;;;;;10.02;4.05;;;12.40;99.90;;;;;;5130487;27;20403;-68
2022/08/28 02:17:41;;;;;;;11.13;4.05;;;12.30;99.90;;;;;;5148292;27;20055;-68
2022/08/28 02:20:07;;;;;;;8.10;4.38;;;12.30;99.90;;;;;;5118913;27;20186;-68
2022/08/28 02:22:33;;;;;;;8.55;3.70;;;12.20;99.90;;;;;;5129738;27;20054;-68
2022/08/28 02:24:59;;;;;;;7.80;4.43;;;12.20;99.90;;;;;;5129735;27;20483;-68
2022/08/28 02:27:24;;;;;;;9.15;4.57;;;12.10;99.90;;;;;;5148081;27;20062;-68
2022/08/28 02:29:50;;;;;;;9.80;4.00;;;12.00;99.90;;;;;;5129820;27;20047;-68
2022/08/28 02:32:17;;;;;;;8.70;4.20;;;11.90;99.90;;;;;;5146217;27;20042;-68
2022/08/28 02:34:43;;;;;;;8.07;4.15;;;11.90;99.90;;;;;;5144289;27;20088;-68
2022/08/28 02:37:12;;;;;;;11.80;5.05;;;12.00;99.90;;;;;;5144801;27;20097;-68
2022/08/28 02:39:38;;;;;;;9.57;4.78;;;11.90;99.90;;;;;;5148419;27;20055;-68
2022/08/28 02:42:04;;;;;;;9.85;4.22;;;12.00;99.90;;;;;;5142433;27;20040;-68
2022/08/28 02:44:30;;;;;;;12.20;4.13;;;12.00;99.90;;;;;;5123844;27;20047;-68
2022/08/28 02:46:56;;;;;;;11.77;3.97;;;12.00;99.90;;;;;;5129017;27;20039;-68
2022/08/28 02:49:24;;;;;;;9.52;4.10;;;12.00;99.90;;;;;;5125777;27;20039;-68
2022/08/28 02:51:50;;;;;;;9.88;4.65;;;12.10;99.90;;;;;;5143044;27;20047;-68
2022/08/28 02:54:16;;;;;;;10.50;4.30;;;12.00;99.90;;;;;;5122400;27;20039;-68
2022/08/28 02:56:41;;;;;;;10.90;4.38;;;12.00;99.90;;;;;;5146930;27;20064;-68
2022/08/28 02:59:07;;;;;;;8.70;3.80;;;12.00;99.90;;;;;;5128676;27;20070;-68
2022/08/28 03:01:33;;;;;;;12.25;3.70;;;12.00;99.90;;;;;;5144436;27;20047;-68
2022/08/28 03:04:01;;;;;;;8.55;4.00;;;12.00;99.90;;;;;;5142989;27;20036;-68
2022/08/28 03:06:28;;;;;;;15.73;4.78;;;12.00;99.90;;;;;;5128815;27;20054;-68
2022/08/28 03:08:54;;;;;;;7.32;4.38;;;12.00;99.90;;;;;;5128849;27;20088;-68
2022/08/28 03:11:21;;;;;;;12.40;4.22;;;12.00;99.90;;;;;;5148185;27;20035;-68
2022/08/28 03:13:47;;;;;;;7.90;3.97;;;12.00;99.90;;;;;;5128218;27;20042;-68
2022/08/28 03:16:13;;;;;;;10.82;3.72;;;12.00;99.90;;;;;;5112552;27;20058;-68
2022/08/28 03:18:40;;;;;;;10.13;3.72;;;12.00;99.90;;;;;;5111931;27;20102;-68
2022/08/28 03:21:06;;;;;;;9.40;3.95;;;12.00;99.90;;;;;;5124498;27;20070;-68
2022/08/28 03:23:31;;;;;;;12.82;4.68;;;11.90;99.90;;;;;;5145178;27;20566;-68
2022/08/28 03:26:04;;;;;;;8.82;3.88;;;11.90;99.90;;;;;;5128236;27;20051;-68
2022/08/28 03:28:34;;;;;;;11.25;3.60;;;11.80;99.90;;;;;;5124110;28;20594;-68
2022/08/28 03:30:59;;;;;;;8.67;3.90;;;11.70;99.90;;;;;;5128425;27;20040;-68
2022/08/28 03:33:26;;;;;;;10.35;4.32;;;11.70;99.90;;;;;;5123217;27;20123;-68
2022/08/28 03:35:52;;;;;;;10.35;4.13;;;11.80;99.90;;;;;;5146783;27;20067;-69
2022/08/28 03:38:19;;;;;;;9.43;4.07;;;11.80;99.90;;;;;;5125189;27;20045;-68
2022/08/28 03:40:46;;;;;;;9.18;4.35;;;11.80;99.90;;;;;;5127509;27;20054;-68
2022/08/28 03:43:18;;;;;;;11.40;4.25;;;11.80;99.90;;;;;;5125969;27;20054;-68
2022/08/28 03:46:01;;;;;;;13.73;4.60;;;11.80;99.90;;;;;;5128357;27;20050;-68
2022/08/28 03:48:33;;;;;;;6.45;4.00;;;11.70;99.90;;;;;;5145136;27;20072;-68
2022/08/28 03:51:00;;;;;;;10.25;4.40;;;11.70;99.90;;;;;;5128615;27;20041;-68
2022/08/28 03:53:28;;;;;;;7.82;3.72;;;11.70;99.90;;;;;;5146251;27;20050;-68
2022/08/28 03:55:55;;;;;;;11.18;4.68;;;11.50;99.90;;;;;;5128690;27;20080;-68
2022/08/28 03:58:22;;;;;;;9.50;4.20;;;11.50;99.90;;;;;;5116231;27;20056;-68
2022/08/28 04:00:49;;;;;;;9.57;4.25;;;11.60;99.90;;;;;;5146512;27;20039;-68
2022/08/28 04:03:15;;;;;;;10.52;4.00;;;11.70;99.90;;;;;;5126505;27;20401;-68
2022/08/28 04:05:42;;;;;;;9.98;4.07;;;11.70;99.90;;;;;;5127901;27;20071;-68
2022/08/28 04:08:12;;;;;;;11.15;4.32;;;11.70;99.90;;;;;;5126819;27;20100;-68
2022/08/28 04:10:38;;;;;;;;;;;11.70;99.90;;;;;;5117065;28;20103;-68
2022/08/28 04:13:03;;;;;;;11.60;4.50;;;11.70;99.90;;;;;;5144831;27;19929;-68
2022/08/28 04:15:29;;;;;;;6.50;3.85;;;11.60;99.90;;;;;;5120720;28;20126;-68
2022/08/28 04:17:55;;;;;;;10.82;4.30;;;11.60;99.90;;;;;;5127246;27;20050;-68
2022/08/28 04:20:21;;;;;;;9.18;3.85;;;11.60;99.90;;;;;;5127561;27;20039;-68
2022/08/28 04:22:47;;;;;;;10.93;4.05;;;11.60;99.90;;;;;;5141705;27;20036;-68
2022/08/28 04:25:13;;;;;;;7.75;3.45;;;11.50;99.90;;;;;;5142963;27;20131;-68
2022/08/28 04:27:40;;;;;;;10.82;4.03;;;11.50;99.90;;;;;;5124589;27;20487;-68
2022/08/28 04:30:06;;;;;;;11.20;4.60;;;11.60;99.90;;;;;;5126785;27;20078;-68
2022/08/28 04:32:36;;;;;;;7.53;3.92;;;11.40;99.90;;;;;;5144916;27;20039;-68
2022/08/28 04:35:04;;;;;;;9.52;3.97;;;11.40;99.90;;;;;;5124536;27;20050;-69
2022/08/28 04:37:30;;;;;;;13.02;4.07;;;11.30;99.90;;;;;;5125339;27;20047;-68
2022/08/28 04:39:56;;;;;;;7.55;4.05;;;11.30;99.90;;;;;;5127078;27;20047;-68
2022/08/28 04:42:22;;;;;;;7.43;3.80;;;11.30;99.90;;;;;;5126004;28;20046;-69
2022/08/28 04:44:47;;;;;;;10.15;4.35;;;11.30;99.90;;;;;;5123766;28;20036;-68
2022/08/28 04:47:13;;;;;;;9.77;4.50;;;11.30;99.90;;;;;;5122702;27;20046;-68
2022/08/28 04:49:39;;;;;;;11.25;3.97;;;11.40;99.90;;;;;;5125288;27;20042;-68
2022/08/28 04:52:05;;;;;;;10.82;4.07;;;11.40;99.90;;;;;;5127163;28;20142;-69
2022/08/28 04:54:34;;;;;;;9.68;4.85;;;11.40;99.90;;;;;;5120953;28;20073;-68
2022/08/28 04:57:01;;;;;;;10.68;3.80;;;11.30;99.90;;;;;;5126984;28;20055;-68
2022/08/28 04:59:28;;;;;;;7.88;3.88;;;11.30;99.90;;;;;;5127126;28;20059;-68
2022/08/28 05:01:53;;;;;;;11.77;4.38;;;11.30;99.90;;;;;;5120530;28;20036;-69
2022/08/28 05:04:19;;;;;;;10.40;4.25;;;11.40;99.90;;;;;;5145261;28;20091;-68
2022/08/28 05:06:46;;;;;;;9.68;3.60;;;11.40;99.90;;;;;;5126712;28;20047;-68
2022/08/28 05:09:17;;;;;;;8.10;4.00;;;11.50;99.90;;;;;;5125461;28;20047;-68
2022/08/28 05:11:43;;;;;;;12.63;4.10;;;11.50;99.90;;;;;;5127507;28;20050;-68
2022/08/28 05:14:09;;;;;;;8.73;4.25;;;11.60;99.90;;;;;;5141970;28;20051;-68
2022/08/28 05:16:47;;;;;;;12.68;5.10;;;11.70;99.90;;;;;;5106052;28;20048;-68
2022/08/28 05:19:14;;;;;;;13.27;4.07;;;11.80;99.90;;;;;;5142745;28;20054;-68
2022/08/28 05:21:41;;;;;;;9.10;3.83;;;11.90;99.90;;;;;;5141183;28;20132;-65
2022/08/28 05:24:07;;;;;;;15.15;4.57;;;12.00;99.90;;;;;;5140813;28;20055;-68
2022/08/28 05:26:34;;;;;;;7.53;3.58;;;12.10;99.90;;;;;;5137784;28;20111;-68
2022/08/28 05:28:59;;;;;;;10.88;4.05;;;12.10;99.90;;;;;;5136558;28;20095;-68
2022/08/28 05:31:27;;;;;;;8.20;4.22;;;12.10;99.90;;;;;;5119907;28;20051;-68
2022/08/28 05:33:54;;;;;;;12.45;3.70;;;12.20;99.90;;;;;;5125824;28;20125;-68
2022/08/28 05:36:22;;;;;;;9.05;4.40;;;12.20;99.90;;;;;;5123776;28;20058;-68
2022/08/28 05:38:50;;;;;;;9.30;3.45;;;12.30;99.90;;;;;;5135260;28;20035;-69
2022/08/28 05:41:21;;;;;;;12.38;4.55;;;12.40;99.90;;;;;;5136373;28;20391;-69
2022/08/28 05:43:48;;;;;;;11.45;3.97;;;12.50;99.90;;;;;;5119220;27;20078;-68
2022/08/28 05:46:15;;;;;;;9.30;3.78;;;12.50;99.90;;;;;;5140228;27;20031;-68
2022/08/28 05:48:41;;;;;;;8.57;3.67;;;12.60;99.90;;;;;;5144113;27;20098;-69
2022/08/28 05:51:11;;;;;;;9.32;3.88;;;12.60;99.90;;;;;;5121296;27;20035;-68
2022/08/28 05:53:39;;;;;;;7.22;3.38;;;12.70;99.90;;;;;;5126766;27;20039;-68
2022/08/28 05:56:07;;;;;;;8.85;3.95;;;12.80;99.90;;;;;;5123513;27;20043;-68
2022/08/28 05:58:33;;;;;;;9.88;3.90;;;12.90;99.90;;;;;;5140737;27;20123;-68
2022/08/28 06:01:15;;;;;;;10.88;3.35;;;12.90;99.90;;;;;;5122894;27;20049;-68
2022/08/28 06:03:43;;;;;;;7.25;3.60;;;13.00;99.90;;;;;;5140809;27;20081;-68
2022/08/28 06:06:10;;;;;;;11.48;3.65;;;13.10;99.90;;;;;;5125418;27;20043;-68
2022/08/28 06:08:36;;;;;;;11.38;4.05;;;13.10;99.90;;;;;;5129902;27;20535;-68
2022/08/28 06:11:04;;;;;;;10.52;3.63;;;13.10;99.90;;;;;;5145989;27;20042;-68
2022/08/28 06:13:30;;;;;;;10.48;4.13;;;13.20;99.90;;;;;;5130018;27;20122;-69
2022/08/28 06:15:56;;;;;;;11.73;3.95;;;13.20;99.90;;;;;;5129242;27;20047;-69
2022/08/28 06:18:24;;;;;;;13.60;3.97;;;13.30;99.90;;;;;;5124179;27;20058;-67
2022/08/28 06:20:50;;;;;;;13.02;4.45;;;13.40;99.90;;;;;;5128870;27;20424;-66
2022/08/28 06:23:19;;;;;;;9.85;4.22;;;13.40;99.90;;;;;;5129142;27;20043;-66
2022/08/28 06:25:47;;;;;;;12.10;3.38;;;13.50;99.90;;;;;;5145735;27;20114;-66
2022/08/28 06:28:25;;;;;;;13.52;4.03;;;13.50;99.90;;;;;;5129904;27;20047;-66
2022/08/28 06:30:52;;;;;;;11.18;3.72;;;13.60;99.90;;;;;;5147052;27;20649;-66
2022/08/28 06:33:20;;;;;;;10.85;3.28;;;13.70;99.90;;;;;;5128037;27;20126;-66
2022/08/28 06:35:51;;;;;;;6.95;3.30;;;13.70;99.90;;;;;;5147110;27;20053;-66
2022/08/28 06:38:18;;;;;;;7.22;3.22;;;13.90;99.90;;;;;;5128567;27;20103;-66
2022/08/28 06:40:50;;;;;;;8.00;3.20;;;13.90;99.90;;;;;;5145679;27;20038;-66
2022/08/28 06:43:17;;;;;;;10.13;3.85;;;14.10;99.90;;;;;;5147357;27;20044;-66
2022/08/28 06:45:45;;;;;;;10.73;3.03;;;14.20;99.90;;;;;;5128614;27;20081;-67
2022/08/28 06:48:18;;;;;;;12.02;3.85;;;14.40;99.90;;;;;;5128671;27;20126;-66
2022/08/28 06:50:46;;;;;;;9.55;3.05;;;14.60;99.90;;;;;;5128312;27;20394;-69
2022/08/28 06:53:15;;;;;;;10.88;2.92;;;14.80;99.90;;;;;;5147281;27;20036;-66
2022/08/28 06:55:41;;;;;;;6.38;2.30;;;15.10;99.90;;;;;;5122695;27;20047;-66
2022/08/28 06:58:08;;;;;;;25.10;3.55;;;15.30;99.90;;;;;;5146505;27;20051;-66
2022/08/28 07:00:35;;;;;;;8.02;2.90;;;15.50;99.90;;;;;;5120909;27;20047;-66
2022/08/28 07:03:02;;;;;;;5.80;2.15;;;15.70;99.90;;;;;;5125348;27;20069;-66
2022/08/28 07:05:28;;;;;;;9.50;3.13;;;15.80;99.90;;;;;;5146472;27;20046;-66
2022/08/28 07:07:54;;;;;;;9.43;2.55;;;15.90;99.90;;;;;;5146423;27;20457;-66
2022/08/28 07:10:20;;;;;;;6.63;2.10;;;16.10;99.90;;;;;;5124492;27;20077;-66
2022/08/28 07:12:49;;;;;;;6.43;2.40;;;16.20;99.90;;;;;;5146715;27;20047;-66
2022/08/28 07:15:16;;;;;;;13.68;3.35;;;16.20;99.90;;;;;;5129510;27;20043;-66
2022/08/28 07:17:42;;;;;;;12.85;2.90;;;16.20;99.90;;;;;;5128029;27;20055;-65
2022/08/28 07:20:10;;;;;;;15.93;4.35;;;16.30;99.90;;;;;;5146584;27;20042;-66
2022/08/28 07:22:36;;;;;;;10.70;3.88;;;16.40;99.90;;;;;;5144129;27;20054;-66
2022/08/28 07:25:03;;;;;;;9.80;2.75;;;16.50;99.90;;;;;;5129190;27;20051;-65
2022/08/28 07:27:30;;;;;;;7.25;1.90;;;16.60;99.90;;;;;;5127271;27;20415;-69
2022/08/28 07:29:57;;;;;;;5.28;2.67;;;16.70;99.90;;;;;;5126591;27;21210;-69
2022/08/28 07:32:23;;;;;;;7.30;2.55;;;16.80;99.90;;;;;;5127759;27;20054;-66
2022/08/28 07:34:49;;;;;;;9.45;2.38;;;16.80;99.90;;;;;;5145859;27;20051;-66
2022/08/28 07:37:16;;;;;;;8.05;2.65;;;16.70;99.90;;;;;;5126932;27;20046;-66
2022/08/28 07:39:42;;;;;;;14.90;2.72;;;16.80;99.90;;;;;;5128113;27;20043;-66
2022/08/28 07:42:08;;;;;;;9.27;2.30;;;16.90;99.90;;;;;;5146060;27;20047;-66
2022/08/28 07:44:49;;;;;;;8.52;1.95;;;17.00;99.90;;;;;;5145284;27;20057;-66
2022/08/28 07:47:16;;;;;;;9.75;2.35;;;17.00;99.90;;;;;;5110595;27;20054;-67
2022/08/28 07:49:42;;;;;;;6.53;1.92;;;17.20;99.90;;;;;;5140581;27;20047;-66
2022/08/28 07:52:09;;;;;;;11.43;2.40;;;17.20;99.90;;;;;;5128031;27;20042;-67
2022/08/28 07:54:36;;;;;;;7.65;2.20;;;17.30;99.90;;;;;;5144677;27;20050;-67
2022/08/28 07:57:03;;;;;;;6.28;2.13;;;17.30;99.90;;;;;;5126672;27;20059;-67
2022/08/28 07:59:29;;;;;;;8.68;1.88;;;17.40;99.90;;;;;;5147202;27;20125;-67
2022/08/28 08:01:55;;;;;;;8.82;1.95;;;17.40;99.90;;;;;;5145649;27;20053;-67
2022/08/28 08:04:22;;;;;;;7.85;2.03;;;17.50;99.90;;;;;;5144602;27;20043;-67
2022/08/28 08:06:49;;;;;;;10.40;2.40;;;17.50;99.90;;;;;;5126652;27;20046;-67
2022/08/28 08:09:17;;;;;;;9.32;1.80;;;17.50;99.90;;;;;;5145224;27;20046;-67
2022/08/28 08:11:42;;;;;;;10.98;2.33;;;17.50;99.90;;;;;;5141313;27;20059;-67
2022/08/28 08:14:08;;;;;;;6.30;2.45;;;17.70;99.90;;;;;;5127641;27;20129;-67
2022/08/28 08:16:40;;;;;;;12.02;2.53;;;17.80;99.90;;;;;;5126563;27;20491;-67
2022/08/28 08:19:12;;;;;;;9.50;2.45;;;17.90;99.90;;;;;;5145450;27;20039;-67
2022/08/28 08:21:40;;;;;;;6.53;2.00;;;18.00;99.90;;;;;;5126693;27;20083;-67
2022/08/28 08:24:06;;;;;;;9.70;2.25;;;18.00;99.90;;;;;;5127236;27;20077;-67
2022/08/28 08:26:32;;;;;;;6.80;2.20;;;18.10;99.90;;;;;;5140433;27;20054;-67
2022/08/28 08:28:59;;;;;;;7.55;1.90;;;17.90;99.90;;;;;;5117748;27;20035;-67
2022/08/28 08:31:33;;;;;;;8.48;2.10;;;18.00;99.90;;;;;;5125298;27;20047;-67
2022/08/28 08:34:00;;;;;;;9.02;2.17;;;17.90;99.90;;;;;;5145073;27;20039;-67
2022/08/28 08:36:28;;;;;;;8.07;2.00;;;18.00;99.90;;;;;;5126436;27;20073;-67
2022/08/28 08:38:54;;;;;;;7.20;1.77;;;18.00;99.90;;;;;;5127012;27;20075;-67
2022/08/28 08:41:46;;;;;;;15.48;3.08;;;18.00;99.90;;;;;;5138480;27;20074;-67
2022/08/28 08:44:31;;;;;;;7.72;2.10;;;18.10;99.90;;;;;;5125951;27;20055;-67
2022/08/28 08:47:08;;;;;;;8.95;2.42;;;18.20;99.90;;;;;;5127428;28;20126;-67
2022/08/28 08:49:37;;;;;;;9.18;2.58;;;18.40;99.90;;;;;;5126046;27;20051;-67
2022/08/28 08:52:31;;;;;;;9.13;2.30;;;18.40;99.90;;;;;;5144516;27;20035;-67
2022/08/28 08:55:13;;;;;;;6.93;2.28;;;18.40;99.90;;;;;;5124718;27;20062;-67
2022/08/28 08:57:40;;;;;;;5.20;1.92;;;18.40;99.90;;;;;;5126458;28;20051;-67
2022/08/28 09:00:10;;;;;;;9.48;2.40;;;18.50;99.90;;;;;;5142914;28;20130;-67
2022/08/28 09:02:47;;;;;;;5.82;2.17;;;18.60;99.90;;;;;;5125930;28;20152;-67
2022/08/28 09:05:19;;;;;;;9.77;2.40;;;18.70;99.90;;;;;;5119291;28;20055;-67
2022/08/28 09:08:01;;;;;;;10.35;2.60;;;18.60;99.90;;;;;;5143049;28;20047;-67
2022/08/28 09:10:38;;;;;;;8.18;2.03;;;18.50;99.90;;;;;;5122149;28;20047;-67
2022/08/28 09:13:32;;;;;;;8.93;2.60;;;18.40;99.90;;;;;;5144910;28;20031;-67
2022/08/28 09:15:59;;;;;;;7.78;1.90;;;18.40;99.90;;;;;;5145603;28;20039;-67
2022/08/28 09:18:30;;;;;;;8.43;2.65;;;18.50;99.90;;;;;;5143827;27;20054;-67
2022/08/28 09:20:57;;;;;;;11.95;2.58;;;18.70;99.90;;;;;;5131438;27;20043;-67
2022/08/28 09:23:25;;;;;;;5.07;1.70;;;18.80;99.90;;;;;;5148808;27;20092;-67
2022/08/28 09:25:58;;;;;;;7.97;2.25;;;19.00;99.90;;;;;;5131324;27;20107;-67
2022/08/28 09:28:27;;;;;;;12.05;2.72;;;19.30;99.90;;;;;;5108801;27;20058;-67
2022/08/28 09:31:01;;;;;;;6.70;1.95;;;19.40;99.90;;;;;;5148815;27;20095;-67
2022/08/28 09:33:32;;;;;;;8.98;3.38;;;19.40;99.90;;;;;;5148978;27;20043;-67
2022/08/28 09:36:27;;;;;;;10.88;2.50;;;19.40;99.90;;;;;;5148277;27;20582;-67
2022/08/28 09:39:20;;;;;;;7.13;2.38;;;19.40;99.90;;;;;;5130598;27;20051;-67
2022/08/28 09:44:48;;;;;;;;;;;19.00;99.90;;;;;;5146623;27;20089;-67
2022/08/28 09:47:37;;;;;;;9.20;2.30;;;18.90;99.90;;;;;;5127759;27;19970;-67
2022/08/28 09:50:30;;;;;;;8.47;2.63;;;19.10;99.90;;;;;;5114410;27;20053;-67
2022/08/28 09:53:14;;;;;;;10.63;2.80;;;19.40;99.90;;;;;;5144970;27;20038;-67
2022/08/28 09:55:52;;;;;;;7.80;2.13;;;19.50;99.90;;;;;;5142790;27;20130;-67
2022/08/28 09:58:19;;;;;;;7.65;2.10;;;19.50;99.90;;;;;;5125711;27;20054;-67
2022/08/28 10:00:54;;;;;;;6.35;2.60;;;19.40;99.90;;;;;;5148432;27;20031;-67
2022/08/28 10:03:32;;;;;;;7.22;2.22;;;19.30;99.90;;;;;;5130335;27;20043;-67
2022/08/28 10:06:25;;;;;;;5.47;2.30;;;19.30;99.90;;;;;;5130629;27;20039;-67
2022/08/28 10:09:22;;;;;;;7.88;2.45;;;19.40;99.90;;;;;;5125225;27;20259;-67
2022/08/28 10:11:57;;;;;;;10.02;2.83;;;19.70;99.90;;;;;;5128168;27;20047;-67
2022/08/28 10:14:36;;;;;;;6.20;2.28;;;20.00;99.90;;;;;;5147970;27;20062;-67
2022/08/28 10:17:31;;;;;;;9.25;2.65;;;20.30;99.90;;;;;;5128068;27;20055;-67
2022/08/28 10:20:18;;;;;;;7.13;2.30;;;20.30;99.90;;;;;;5121764;27;20046;-67
2022/08/28 10:22:56;;;;;;;9.95;2.53;;;20.30;99.90;;;;;;5146612;27;20050;-67
2022/08/28 10:25:37;;;;;;;4.93;2.05;;;20.20;99.90;;;;;;5147103;27;20047;-68
2022/08/28 10:28:31;;;;;;;10.65;3.00;;;20.30;99.90;;;;;;5127171;27;20111;-67
2022/08/28 10:31:08;;;;;;;9.38;2.80;;;20.30;99.90;;;;;;5123577;27;20049;-67
2022/08/28 10:33:52;;;;;;;9.15;2.88;;;20.40;99.90;;;;;;5128191;27;20047;-67
2022/08/28 10:36:23;;;;;;;12.23;2.47;;;20.50;99.90;;;;;;5129223;27;20142;-67
2022/08/28 10:39:00;;;;;;;5.80;2.17;;;20.50;99.90;;;;;;5127851;27;20483;-67
2022/08/28 10:42:00;;;;;;;7.95;2.60;;;20.40;99.90;;;;;;5125552;27;20129;-67
2022/08/28 10:44:54;;;;;;;10.77;2.83;;;20.40;99.90;;;;;;5142387;27;20131;-67
2022/08/28 10:47:22;;;;;;;7.93;2.00;;;20.40;99.90;;;;;;5127892;27;20054;-67
2022/08/28 10:49:52;;;;;;;6.47;2.30;;;20.40;99.90;;;;;;5126983;27;20074;-67
2022/08/28 10:52:46;;;;;;;7.25;2.03;;;20.60;99.90;;;;;;5126460;27;20035;-67
2022/08/28 10:55:20;;;;;;;9.70;2.30;;;20.80;99.90;;;;;;5129125;27;20511;-67
2022/08/28 10:57:59;;;;;;;6.85;2.00;;;20.90;99.90;;;;;;5129144;27;20096;-67
2022/08/28 11:00:27;;;;;;;9.48;2.25;;;21.00;99.90;;;;;;5141286;27;20138;-67
2022/08/28 11:03:24;;;;;;;9.38;2.60;;;21.00;99.90;;;;;;5145945;27;20047;-67
2022/08/28 11:06:00;;;;;;;7.10;2.30;;;20.90;99.90;;;;;;5113211;27;20051;-67
2022/08/28 11:08:32;;;;;;;5.97;1.95;;;20.70;99.90;;;;;;5144276;27;20047;-67
2022/08/28 11:11:03;;;;;;;8.18;2.20;;;20.70;99.90;;;;;;5128101;27;20055;-67
2022/08/28 11:13:58;;;;;;;5.63;2.25;;;20.80;99.90;;;;;;5108375;27;20083;-67
2022/08/28 11:16:27;;;;;;;5.22;2.08;;;21.00;99.90;;;;;;5128233;27;20045;-67
2022/08/28 11:19:20;;;;;;;9.48;2.22;;;21.30;99.90;;;;;;5111707;27;20077;-67
2022/08/28 11:21:51;;;;;;;4.70;2.00;;;21.40;99.90;;;;;;5119364;28;20046;-67
2022/08/28 11:24:38;;;;;;;7.68;2.22;;;21.60;99.90;;;;;;5140840;27;20039;-67
2022/08/28 11:27:26;;;;;;;11.50;2.22;;;21.80;99.90;;;;;;5117138;27;20113;-67
2022/08/28 11:30:10;;;;;;;6.82;2.20;;;21.70;97.90;;;;;;5146014;27;20126;-67
2022/08/28 11:32:51;;;;;;;7.05;2.42;;;21.50;97.50;;;;;;5127721;27;20051;-67
2022/08/28 11:35:19;;;;;;;4.97;2.00;;;21.30;98.00;;;;;;5127588;27;20496;-67
2022/08/28 11:37:47;;;;;;;6.75;2.10;;;21.20;97.40;;;;;;5126900;27;20501;-67
2022/08/28 11:40:16;;;;;;;10.50;2.13;;;21.30;97.60;;;;;;5128746;27;20106;-67
2022/08/28 11:42:42;;;;;;;5.55;2.00;;;21.30;96.80;;;;;;5121604;28;20058;-67
2022/08/28 11:45:39;;;;;;;7.35;2.25;;;21.40;98.10;;;;;;5126435;27;20067;-67
2022/08/28 11:48:05;;;;;;;5.80;2.00;;;21.70;98.00;;;;;;5127454;27;20098;-67
2022/08/28 11:50:49;;;;;;;7.35;2.40;;;21.70;97.30;;;;;;5110611;27;20118;-67
2022/08/28 11:53:24;;;;;;;11.60;2.83;;;22.00;98.00;;;;;;5145349;27;20038;-67
2022/08/28 11:56:09;;;;;;;8.93;2.30;;;22.10;97.60;;;;;;5127746;27;20047;-67
2022/08/28 11:59:10;;;;;;;9.55;2.08;;;22.20;97.20;;;;;;5140201;27;20082;-67
2022/08/28 12:01:36;;;;;;;6.82;1.92;;;22.20;97.50;;;;;;5126537;27;20047;-68
2022/08/28 12:04:06;;;;;;;5.47;1.75;;;22.20;96.70;;;;;;5126919;27;20047;-68
2022/08/28 12:06:48;;;;;;;6.05;1.95;;;22.20;96.60;;;;;;5124917;27;20039;-67
2022/08/28 12:09:42;;;;;;;3.95;1.98;;;22.00;96.80;;;;;;5145182;27;20074;-67
2022/08/28 12:12:20;;;;;;;6.50;1.88;;;21.90;96.50;;;;;;5125402;27;20491;-67
2022/08/28 12:14:46;;;;;;;10.52;2.95;;;22.00;96.00;;;;;;5124549;27;20049;-68
2022/08/28 12:17:27;;;;;;;7.53;2.20;;;22.30;96.10;;;;;;5123054;27;20090;-68
2022/08/28 12:20:24;;;;;;;7.60;1.90;;;22.50;96.20;;;;;;5139749;27;20106;-68
2022/08/28 12:22:59;;;;;;;4.78;2.03;;;22.70;96.40;;;;;;5095151;27;20089;-68
2022/08/28 12:25:42;;;;;;;6.05;2.00;;;22.80;95.70;;;;;;5126418;27;20081;-68
2022/08/28 12:28:45;;;;;;;6.82;2.05;;;22.80;95.40;;;;;;5144747;27;20112;-68
2022/08/28 12:32:10;;;;;;;5.90;2.45;;;22.70;96.60;;;;;;5026016;28;20100;-68
2022/08/28 12:35:06;;;;;;;9.95;2.28;;;22.70;95.50;;;;;;5042062;28;20049;-68
2022/08/28 12:37:44;;;;;;;8.15;2.08;;;22.80;95.60;;;;;;5041782;28;20075;-68
2022/08/28 12:40:16;;;;;;;4.20;1.95;;;22.80;95.20;;;;;;5041837;28;20052;-68
2022/08/28 12:42:58;;;;;;;6.88;2.63;;;22.70;94.30;;;;;;5025482;28;20515;-68
2022/08/28 12:45:28;;;;;;;7.07;2.30;;;22.60;93.40;;;;;;5024469;28;20100;-68
2022/08/28 12:47:58;;;;;;;7.78;2.78;;;22.60;94.40;;;;;;5025012;28;20147;-68
2022/08/28 12:50:28;;;;;;;8.15;2.97;;;22.70;94.90;;;;;;5024833;28;20079;-68
2022/08/28 12:52:58;;;;;;;5.20;2.58;;;22.80;94.20;;;;;;5008195;28;20050;-68
2022/08/28 12:55:25;;;;;;;8.57;2.78;;;22.80;94.00;;;;;;5024475;28;20049;-68
2022/08/28 12:57:51;;;;;;;6.40;2.63;;;22.70;93.80;;;;;;5024567;28;20796;-69
2022/08/28 13:00:25;;;;;;;7.65;2.83;;;22.70;94.80;;;;;;5041201;28;20053;-68
2022/08/28 13:02:53;;;;;;;8.27;2.78;;;22.70;94.90;;;;;;5025223;28;20045;-68
2022/08/28 13:05:36;;;;;;;6.63;2.85;;;22.90;94.80;;;;;;5024434;28;20045;-68
2022/08/28 13:08:06;;;;;;;7.30;2.47;;;22.80;94.60;;;;;;5081665;28;20504;-68
2022/08/28 13:10:47;;;;;;;7.25;2.72;;;22.80;94.30;;;;;;5122878;28;20099;-68
2022/08/28 13:13:22;;;;;;;8.50;2.75;;;23.00;94.70;;;;;;5126326;28;20051;-68
2022/08/28 13:15:59;;;;;;;6.13;2.10;;;23.30;94.90;;;;;;5122756;28;20043;-68
2022/08/28 13:18:45;;;;;;;9.60;2.75;;;23.50;94.80;;;;;;5122319;28;20055;-68
2022/08/28 13:21:16;;;;;;;6.43;2.30;;;23.10;94.00;;;;;;5121468;28;20051;-68
2022/08/28 13:23:50;;;;;;;5.03;2.22;;;23.00;93.40;;;;;;5124428;28;20099;-68
2022/08/28 13:26:27;;;;;;;4.70;2.13;;;23.10;94.80;;;;;;5136679;28;20118;-68
2022/08/28 13:28:53;;;;;;;6.03;2.28;;;23.40;94.50;;;;;;5123654;28;20394;-68
2022/08/28 13:31:33;;;;;;;5.82;2.28;;;23.70;94.30;;;;;;5144079;28;20126;-68
2022/08/28 13:34:08;;;;;;;8.23;3.13;;;23.80;94.90;;;;;;5123911;28;20050;-68
2022/08/28 13:37:05;;;;;;;8.23;2.42;;;23.90;93.40;;;;;;5125191;28;20055;-68
2022/08/28 13:39:32;;;;;;;6.72;3.00;;;23.80;92.50;;;;;;5115924;28;20138;-69
2022/08/28 13:42:04;;;;;;;7.55;2.40;;;24.00;93.70;;;;;;5126863;28;20078;-69
2022/08/28 13:44:51;;;;;;;7.80;1.83;;;24.20;94.20;;;;;;5125899;28;20039;-69
2022/08/28 13:47:17;;;;;;;3.90;1.92;;;24.50;93.70;;;;;;5125887;28;20039;-68
2022/08/28 13:49:43;;;;;;;5.65;1.98;;;24.60;92.30;;;;;;5125788;28;20107;-69
2022/08/28 13:52:10;;;;;;;5.85;2.30;;;24.40;92.90;;;;;;5144725;28;20039;-68
2022/08/28 13:54:36;;;;;;;3.67;1.75;;;24.30;92.90;;;;;;5144203;28;20031;-68
2022/08/28 13:57:02;;;;;;;3.70;1.50;;;24.20;93.40;;;;;;5144482;28;20058;-68
2022/08/28 13:59:29;;;;;;;6.15;1.77;;;24.20;93.90;;;;;;5126146;28;20059;-69
2022/08/28 14:04:42;;;;;;;4.38;1.67;;;24.40;94.10;;;;;;5141585;27;20089;-69
2022/08/28 14:07:08;;;;;;;5.03;1.70;;;24.40;94.30;;;;;;5146185;27;20050;-69
2022/08/28 14:09:34;;;;;;;3.28;1.48;;;25.00;94.60;;;;;;5128588;27;20082;-69